Time;durP1;ratioP1;P1;durP2;ratioP2;P2;SDS_P1;SDS_P2;PMS_P1;PMS_P2;Temp;Humidity;BMP_temperature;BMP_pressure;BME280_temperature;BME280_humidity;BME280_pressure;Samples;Min_cycle;Max_cycle;Signal;HPM_P1;HPM_P2
2021/12/20 00:03:01;;;;;;;12.27;5.70;;;18.90;65.80;;;;;;10582911;28;20047;-57
2021/12/20 00:08:07;;;;;;;18.33;8.88;;;18.80;65.70;;;;;;10582991;28;20055;-57
2021/12/20 00:13:11;;;;;;;9.82;5.57;;;18.90;65.70;;;;;;10582763;28;20048;-57
2021/12/20 00:18:16;;;;;;;8.85;4.95;;;18.80;65.50;;;;;;10582036;28;20055;-57
2021/12/20 00:23:22;;;;;;;33.45;10.90;;;18.80;65.60;;;;;;10582383;28;20061;-57
2021/12/20 00:28:27;;;;;;;17.52;4.18;;;18.80;65.50;;;;;;10581368;28;20458;-57
2021/12/20 00:33:35;;;;;;;6.45;3.90;;;18.70;65.30;;;;;;10582114;28;20077;-57
2021/12/20 00:44:04;;;;;;;9.50;3.88;;;18.70;65.30;;;;;;10581166;28;20093;-56
2021/12/20 00:49:30;;;;;;;225.82;126.82;;;18.70;65.40;;;;;;10581157;28;20096;-56
2021/12/20 00:54:35;;;;;;;10.10;3.25;;;18.60;65.30;;;;;;10583038;28;20120;-56
2021/12/20 00:59:40;;;;;;;67.78;16.00;;;18.60;65.20;;;;;;10589563;28;20051;-56
2021/12/20 01:04:45;;;;;;;4.38;3.05;;;18.60;65.70;;;;;;10589494;28;20101;-56
2021/12/20 01:09:50;;;;;;;6.75;3.25;;;18.50;65.60;;;;;;10589127;28;20097;-56
2021/12/20 01:14:59;;;;;;;9.63;7.72;;;18.50;65.90;;;;;;10588902;28;20116;-57
2021/12/20 01:20:10;;;;;;;61.95;18.38;;;18.50;65.80;;;;;;10589402;28;20035;-57
2021/12/20 01:25:16;;;;;;;57.42;8.85;;;18.50;65.80;;;;;;10588737;28;20117;-57
2021/12/20 01:30:24;;;;;;;5.32;2.42;;;18.50;65.70;;;;;;10588306;28;20047;-57
2021/12/20 01:35:29;;;;;;;7.28;2.25;;;18.40;65.90;;;;;;10588997;28;20109;-56
2021/12/20 01:40:35;;;;;;;5.63;2.42;;;18.50;65.70;;;;;;10587947;28;20073;-56
2021/12/20 01:45:40;;;;;;;10.40;3.95;;;18.40;65.40;;;;;;10587832;28;20391;-56
2021/12/20 01:51:02;;;;;;;4.38;2.30;;;18.40;65.80;;;;;;10569706;28;20101;-56
2021/12/20 01:56:08;;;;;;;6.30;2.60;;;18.40;65.90;;;;;;10587450;28;20052;-56
2021/12/20 02:11:27;;;;;;;5.82;2.00;;;18.30;64.20;;;;;;10586559;28;20108;-57
2021/12/20 02:16:32;;;;;;;6.22;1.90;;;18.30;63.40;;;;;;10584804;28;20043;-57
2021/12/20 02:21:38;;;;;;;8.32;2.30;;;18.30;65.10;;;;;;10582955;28;20032;-56
2021/12/20 02:26:44;;;;;;;18.33;2.42;;;18.30;64.70;;;;;;10586302;28;20051;-57
2021/12/20 02:37:27;;;;;;;7.25;1.17;;;18.30;64.90;;;;;;10543554;28;20064;-56
2021/12/20 02:42:39;;;;;;;7.70;1.00;;;18.30;64.90;;;;;;10582750;28;20039;-56
2021/12/20 02:47:46;;;;;;;5.15;1.20;;;18.20;64.60;;;;;;10582336;28;20104;-56
2021/12/20 02:52:52;;;;;;;44.70;5.78;;;18.20;64.70;;;;;;10583292;28;20385;-56
2021/12/20 02:57:57;;;;;;;1.58;0.90;;;18.20;64.70;;;;;;10583648;28;20091;-56
2021/12/20 03:03:02;;;;;;;3.00;1.20;;;18.20;64.80;;;;;;10582513;28;20044;-56
2021/12/20 03:08:07;;;;;;;3.42;1.30;;;18.20;64.50;;;;;;10583054;28;20047;-56
2021/12/20 03:13:13;;;;;;;4.05;1.40;;;18.10;64.30;;;;;;10582039;28;20105;-56
2021/12/20 03:18:18;;;;;;;9.82;1.77;;;18.10;63.60;;;;;;10579085;28;20100;-56
2021/12/20 03:23:23;;;;;;;3.97;1.48;;;18.10;63.90;;;;;;10582716;28;20553;-56
2021/12/20 03:28:28;;;;;;;4.97;1.80;;;18.10;64.00;;;;;;10583366;28;20048;-56
2021/12/20 03:33:33;;;;;;;3.03;1.10;;;18.10;64.10;;;;;;10583629;28;20404;-57
2021/12/20 03:38:38;;;;;;;3.03;1.15;;;18.00;63.40;;;;;;10583812;28;20036;-57
2021/12/20 03:43:43;;;;;;;4.07;1.30;;;18.00;63.20;;;;;;10565595;28;20449;-57
2021/12/20 03:48:48;;;;;;;3.08;1.15;;;18.00;64.50;;;;;;10584526;28;20055;-56
2021/12/20 03:53:53;;;;;;;3.22;1.38;;;18.00;64.20;;;;;;10582355;28;20048;-57
2021/12/20 03:58:58;;;;;;;2.58;1.20;;;18.00;64.40;;;;;;10583000;28;20087;-57
2021/12/20 04:04:03;;;;;;;7.43;1.38;;;17.90;64.30;;;;;;10582106;28;20051;-57
2021/12/20 04:09:08;;;;;;;3.05;1.17;;;17.90;63.70;;;;;;10583182;28;20069;-56
2021/12/20 04:14:14;;;;;;;4.63;1.27;;;17.90;63.70;;;;;;10583111;28;20051;-56
2021/12/20 04:19:18;;;;;;;2.80;1.67;;;18.00;63.60;;;;;;10540219;28;20097;-57
2021/12/20 04:24:23;;;;;;;6.65;1.90;;;18.00;63.30;;;;;;10539682;28;20044;-57
2021/12/20 04:29:29;;;;;;;4.68;1.50;;;18.20;62.90;;;;;;10521411;28;20058;-57
2021/12/20 04:34:34;;;;;;;9.50;1.60;;;18.30;62.40;;;;;;10525812;28;20074;-57
2021/12/20 04:39:39;;;;;;;3.97;1.60;;;18.50;62.00;;;;;;10514081;28;20107;-57
2021/12/20 04:44:44;;;;;;;10.00;4.93;;;18.70;61.60;;;;;;10538779;28;20390;-57
2021/12/20 04:49:49;;;;;;;3.55;1.70;;;18.90;61.40;;;;;;10539167;28;20074;-57
2021/12/20 04:54:54;;;;;;;2.38;1.48;;;18.90;61.10;;;;;;10580661;28;20069;-57
2021/12/20 04:59:59;;;;;;;2.67;1.55;;;19.10;61.00;;;;;;10563053;28;20047;-57
2021/12/20 05:05:04;;;;;;;2.75;1.63;;;19.10;60.90;;;;;;10580909;28;20113;-56
2021/12/20 05:10:12;;;;;;;18.77;12.68;;;19.20;60.60;;;;;;10582017;28;20062;-57
2021/12/20 05:15:17;;;;;;;4.40;1.50;;;19.30;60.20;;;;;;10589520;28;20059;-57
2021/12/20 05:20:23;;;;;;;3.13;1.20;;;19.40;60.30;;;;;;10605508;28;20035;-56
2021/12/20 05:25:28;;;;;;;4.47;1.48;;;19.50;60.30;;;;;;10624564;28;20047;-57
2021/12/20 05:30:33;;;;;;;2.55;1.25;;;19.50;60.30;;;;;;10622593;28;20100;-57
2021/12/20 05:35:37;;;;;;;4.40;1.15;;;19.60;60.10;;;;;;10621915;28;20384;-57
2021/12/20 05:40:43;;;;;;;28.88;3.83;;;19.60;60.20;;;;;;10621485;27;20064;-57
2021/12/20 05:45:47;;;;;;;3.38;1.20;;;19.60;60.10;;;;;;10629612;27;20084;-57
2021/12/20 05:50:52;;;;;;;4.20;1.80;;;19.70;60.00;;;;;;10629817;27;20392;-57
2021/12/20 05:55:57;;;;;;;7.57;1.45;;;19.70;60.00;;;;;;10629699;27;20047;-57
2021/12/20 06:01:02;;;;;;;2.05;1.25;;;19.80;59.90;;;;;;10628863;27;20123;-57
2021/12/20 06:06:08;;;;;;;6.32;1.48;;;19.80;60.00;;;;;;10627855;27;20047;-57
2021/12/20 06:11:13;;;;;;;30.08;2.00;;;19.80;59.90;;;;;;10628789;27;20108;-58
2021/12/20 06:16:19;;;;;;;5.95;1.23;;;19.70;60.20;;;;;;10629315;27;20174;-60
2021/12/20 06:21:24;;;;;;;8.30;1.73;;;19.50;60.30;;;;;;10628178;27;20035;-57
2021/12/20 06:26:29;;;;;;;6.30;1.33;;;19.50;60.80;;;;;;10625646;27;20100;-57
2021/12/20 06:31:34;;;;;;;15.02;1.30;;;19.50;60.90;;;;;;10628720;27;20039;-58
2021/12/20 06:36:39;;;;;;;213.10;28.98;;;19.50;61.30;;;;;;10628664;27;20062;-57
2021/12/20 06:41:44;;;;;;;160.40;20.85;;;19.40;61.60;;;;;;10628588;27;20043;-58
2021/12/20 06:46:50;;;;;;;93.55;13.70;;;19.40;61.70;;;;;;10627849;27;20047;-57
2021/12/20 06:51:59;;;;;;;77.93;10.45;;;19.30;61.70;;;;;;10627299;27;20044;-57
2021/12/20 06:57:04;;;;;;;48.08;8.27;;;19.20;61.70;;;;;;10610032;27;20079;-57
2021/12/20 07:02:09;;;;;;;35.88;6.10;;;19.20;61.70;;;;;;10627239;27;20389;-57
2021/12/20 07:07:14;;;;;;;37.53;7.22;;;19.20;61.50;;;;;;10627643;27;20104;-58
2021/12/20 07:12:20;;;;;;;22.88;3.35;;;19.10;61.50;;;;;;10627557;27;20035;-58
2021/12/20 07:17:25;;;;;;;15.68;3.55;;;19.10;61.40;;;;;;10628308;27;20373;-58
2021/12/20 07:22:30;;;;;;;8.73;2.70;;;19.10;61.30;;;;;;10627707;27;20039;-57
2021/12/20 07:27:35;;;;;;;6.35;1.98;;;19.00;61.20;;;;;;10627194;27;20043;-57
2021/12/20 07:32:40;;;;;;;5.32;1.40;;;18.90;61.10;;;;;;10627150;27;20044;-58
2021/12/20 07:37:45;;;;;;;4.05;1.60;;;18.90;61.10;;;;;;10626505;27;20091;-58
2021/12/20 07:42:50;;;;;;;5.90;1.27;;;18.90;61.00;;;;;;10626168;27;20039;-58
2021/12/20 07:47:55;;;;;;;6.35;1.98;;;18.90;60.90;;;;;;10625517;27;20050;-58
2021/12/20 07:53:00;;;;;;;4.88;1.80;;;18.90;60.90;;;;;;10607584;27;20043;-58
2021/12/20 07:58:05;;;;;;;4.78;2.38;;;18.80;60.90;;;;;;10626069;27;20100;-58
2021/12/20 08:03:12;;;;;;;4.95;2.15;;;18.80;61.00;;;;;;10625305;27;20046;-57
2021/12/20 08:08:17;;;;;;;3.45;2.13;;;18.70;60.60;;;;;;10624897;27;20047;-58
2021/12/20 08:13:22;;;;;;;3.65;1.95;;;18.70;60.60;;;;;;10624836;27;20055;-57
2021/12/20 08:18:30;;;;;;;4.43;2.28;;;18.70;60.50;;;;;;10625509;27;20100;-57
2021/12/20 08:23:36;;;;;;;7.40;2.50;;;18.70;60.30;;;;;;10624682;27;20080;-57
2021/12/20 08:28:41;;;;;;;7.35;2.20;;;18.70;60.30;;;;;;10624757;27;20100;-57
2021/12/20 08:33:46;;;;;;;4.40;2.17;;;18.60;60.30;;;;;;10623971;27;20449;-57
2021/12/20 08:38:51;;;;;;;4.32;2.00;;;18.60;60.30;;;;;;10606539;27;20051;-57
2021/12/20 08:43:55;;;;;;;6.85;2.03;;;18.60;60.20;;;;;;10623814;28;20399;-57
2021/12/20 08:49:01;;;;;;;5.03;1.70;;;18.60;60.00;;;;;;10623696;28;20072;-56
2021/12/20 08:54:06;;;;;;;3.88;2.03;;;18.60;60.00;;;;;;10623451;28;20092;-57
2021/12/20 08:59:11;;;;;;;3.80;2.17;;;18.50;59.80;;;;;;10623503;28;20051;-57
2021/12/20 09:04:17;;;;;;;3.78;1.90;;;18.50;60.00;;;;;;10623926;28;20035;-56
2021/12/20 09:09:22;;;;;;;2.55;1.75;;;18.50;59.90;;;;;;10623447;28;20047;-56
2021/12/20 09:14:28;;;;;;;7.28;2.40;;;18.50;59.80;;;;;;10623585;27;20112;-57
2021/12/20 09:19:36;;;;;;;2.88;1.70;;;18.50;59.50;;;;;;10632174;27;20096;-57
2021/12/20 09:24:41;;;;;;;2.50;1.80;;;18.50;59.20;;;;;;10632255;27;20039;-57
2021/12/20 09:29:46;;;;;;;3.08;1.90;;;18.50;59.10;;;;;;10631062;27;20051;-57
2021/12/20 09:34:51;;;;;;;3.65;1.98;;;18.40;59.00;;;;;;10631055;27;20499;-57
2021/12/20 09:39:56;;;;;;;5.05;3.05;;;18.50;59.00;;;;;;10631550;27;20043;-57
2021/12/20 09:45:03;;;;;;;6.72;3.65;;;18.40;58.60;;;;;;10631148;27;20480;-57
2021/12/20 09:50:08;;;;;;;4.00;3.00;;;18.40;58.70;;;;;;10613022;27;20039;-57
2021/12/20 09:55:15;;;;;;;5.78;2.92;;;18.40;58.90;;;;;;10612795;27;20407;-56
2021/12/20 10:00:22;;;;;;;6.53;2.92;;;18.40;58.70;;;;;;10629927;27;20043;-57
2021/12/20 10:05:27;;;;;;;4.13;2.88;;;18.40;58.20;;;;;;10630483;27;20476;-57
2021/12/20 10:10:41;;;;;;;5.63;3.30;;;18.40;58.20;;;;;;10612244;27;20100;-56
2021/12/20 10:15:47;;;;;;;5.43;3.15;;;18.40;58.50;;;;;;10629686;27;20055;-56
2021/12/20 10:20:57;;;;;;;5.72;2.85;;;18.40;58.30;;;;;;10610822;27;20487;-56
2021/12/20 10:26:15;;;;;;;4.68;3.20;;;18.30;57.90;;;;;;10629370;27;20064;-56
2021/12/20 10:31:26;;;;;;;5.27;3.07;;;18.30;58.10;;;;;;10629212;27;20080;-56
2021/12/20 10:36:33;;;;;;;4.53;2.90;;;18.30;58.50;;;;;;10629017;27;20039;-57
2021/12/20 10:41:40;;;;;;;4.40;2.73;;;18.30;58.20;;;;;;10628527;27;20047;-56
2021/12/20 10:47:01;;;;;;;3.58;2.60;;;18.30;58.20;;;;;;10628013;27;20292;-56
2021/12/20 10:52:09;;;;;;;4.38;2.70;;;18.20;58.10;;;;;;10628018;27;20116;-56
2021/12/20 10:57:30;;;;;;;4.80;2.70;;;18.20;58.10;;;;;;10609615;27;20493;-56
2021/12/20 11:13:49;;;;;;;;;;;18.10;58.60;;;;;;10414818;28;20065;-57
2021/12/20 11:19:24;;;;;;;6.75;3.38;;;18.10;59.00;;;;;;10413803;28;20373;-57
2021/12/20 11:24:36;;;;;;;4.93;2.72;;;18.10;58.40;;;;;;10413581;28;20115;-57
2021/12/20 11:29:42;;;;;;;4.97;2.75;;;18.00;58.50;;;;;;10413205;28;20046;-57
2021/12/20 11:34:47;;;;;;;4.45;2.88;;;18.00;58.40;;;;;;10413254;28;20062;-57
2021/12/20 11:39:54;;;;;;;5.63;2.55;;;18.00;58.70;;;;;;10609158;27;20059;-57
2021/12/20 11:45:02;;;;;;;4.50;2.75;;;18.00;58.60;;;;;;10626169;27;20043;-57
2021/12/20 11:50:14;;;;;;;7.20;2.93;;;17.90;57.80;;;;;;10625390;27;20445;-57
2021/12/20 11:55:22;;;;;;;5.57;3.17;;;17.90;57.10;;;;;;10626118;27;20096;-57
2021/12/20 12:00:38;;;;;;;5.85;2.78;;;17.90;58.60;;;;;;10625054;27;20068;-57
2021/12/20 12:05:51;;;;;;;8.23;4.25;;;17.90;58.30;;;;;;10625604;27;20095;-57
2021/12/20 12:11:16;;;;;;;5.45;3.45;;;17.90;58.30;;;;;;10625328;27;20452;-57
2021/12/20 12:16:30;;;;;;;7.47;3.45;;;17.90;57.80;;;;;;10609144;27;20051;-57
2021/12/20 12:21:38;;;;;;;9.63;3.55;;;17.90;57.40;;;;;;10624952;27;20054;-57
2021/12/20 12:26:54;;;;;;;;;;;17.90;57.60;;;;;;10626142;27;20537;-57
2021/12/20 12:32:01;;;;;;;6.80;3.03;;;17.90;57.60;;;;;;10606597;27;20421;-57
2021/12/20 12:37:37;;;;;;;7.43;3.30;;;17.80;58.00;;;;;;10624156;27;20115;-57
2021/12/20 12:42:49;;;;;;;8.70;3.03;;;17.80;58.00;;;;;;10623846;27;20346;-57
2021/12/20 12:48:00;;;;;;;5.13;2.88;;;17.80;58.40;;;;;;10623682;28;20092;-57
2021/12/20 12:53:38;;;;;;;6.38;2.95;;;17.80;58.70;;;;;;10630796;27;20043;-57
2021/12/20 12:58:44;;;;;;;5.22;2.60;;;17.70;58.80;;;;;;10633020;27;20050;-57
2021/12/20 13:03:49;;;;;;;5.60;2.72;;;17.70;58.90;;;;;;10632042;27;20096;-57
2021/12/20 13:08:54;;;;;;;4.30;2.47;;;17.70;59.00;;;;;;10632759;27;20043;-57
2021/12/20 13:14:14;;;;;;;5.32;2.78;;;17.70;59.00;;;;;;10631815;27;20108;-57
2021/12/20 13:19:32;;;;;;;3.53;2.30;;;17.70;57.40;;;;;;10631879;27;20482;-57
2021/12/20 13:24:37;;;;;;;5.45;3.08;;;17.60;58.80;;;;;;10631899;27;20043;-57
2021/12/20 13:29:49;;;;;;;5.53;2.40;;;17.60;57.40;;;;;;10631138;27;20076;-57
2021/12/20 13:34:56;;;;;;;4.57;2.60;;;17.60;58.40;;;;;;10631594;27;20536;-57
2021/12/20 13:40:01;;;;;;;3.65;2.63;;;17.60;58.50;;;;;;10631565;27;20043;-57
2021/12/20 13:45:12;;;;;;;5.20;2.63;;;17.70;58.20;;;;;;10612187;27;20446;-57
2021/12/20 13:50:18;;;;;;;4.50;2.28;;;17.60;58.50;;;;;;10630961;27;20050;-57
2021/12/20 13:55:23;;;;;;;5.45;2.72;;;17.60;58.80;;;;;;10631197;27;20092;-57
2021/12/20 14:00:28;;;;;;;6.38;3.35;;;17.60;56.50;;;;;;10630019;27;20096;-57
2021/12/20 14:05:37;;;;;;;6.68;2.83;;;17.50;55.50;;;;;;10631042;27;20058;-57
2021/12/20 14:10:43;;;;;;;4.45;2.67;;;17.50;57.70;;;;;;10629679;27;20105;-57
2021/12/20 14:15:55;;;;;;;5.03;2.60;;;17.50;56.40;;;;;;10630149;27;20047;-57
2021/12/20 14:21:04;;;;;;;5.88;3.17;;;17.40;56.20;;;;;;10629219;27;20055;-57
2021/12/20 14:26:37;;;;;;;3.58;2.45;;;17.40;56.00;;;;;;10629581;27;20039;-57
2021/12/20 14:31:59;;;;;;;5.15;2.88;;;17.40;57.20;;;;;;10628993;27;20051;-57
2021/12/20 14:37:13;;;;;;;6.88;3.05;;;17.40;56.00;;;;;;10629257;27;20039;-57
2021/12/20 14:42:19;;;;;;;5.75;3.22;;;17.40;56.60;;;;;;10610080;27;20092;-57
2021/12/20 14:47:36;;;;;;;6.50;3.42;;;17.40;57.60;;;;;;10628712;27;20103;-57
2021/12/20 14:52:41;;;;;;;8.05;3.60;;;17.40;57.70;;;;;;10628560;27;20046;-57
2021/12/20 14:57:49;;;;;;;7.95;4.10;;;17.50;57.00;;;;;;10627817;27;20104;-57
2021/12/20 15:02:54;;;;;;;12.25;5.40;;;17.60;56.20;;;;;;10627965;27;20449;-57
2021/12/20 15:07:59;;;;;;;11.50;5.30;;;17.80;55.60;;;;;;10627395;27;20047;-57
2021/12/20 15:13:04;;;;;;;11.45;4.90;;;18.00;55.40;;;;;;10626669;27;20407;-57
2021/12/20 15:18:09;;;;;;;10.80;4.20;;;18.20;54.70;;;;;;10626749;27;20559;-57
2021/12/20 15:23:14;;;;;;;8.70;4.32;;;18.30;54.70;;;;;;10626534;27;20101;-57
2021/12/20 15:28:19;;;;;;;9.70;4.43;;;18.40;54.30;;;;;;10608985;27;20108;-57
2021/12/20 15:33:24;;;;;;;10.25;4.88;;;18.50;54.30;;;;;;10626782;27;20047;-57
2021/12/20 15:38:29;;;;;;;13.30;5.68;;;18.60;53.90;;;;;;10626099;27;20501;-57
2021/12/20 15:43:34;;;;;;;11.55;5.13;;;18.60;54.10;;;;;;10608130;27;20055;-57
2021/12/20 15:48:40;;;;;;;10.82;5.28;;;18.70;54.10;;;;;;10609233;27;20039;-57
2021/12/20 15:53:44;;;;;;;11.75;5.65;;;18.80;54.00;;;;;;10625938;27;20069;-57
2021/12/20 15:58:55;;;;;;;12.30;5.28;;;18.80;54.00;;;;;;10625867;27;20039;-57
2021/12/20 16:04:02;;;;;;;10.82;5.20;;;18.90;53.80;;;;;;10625612;27;20043;-57
2021/12/20 16:09:07;;;;;;;9.50;5.38;;;19.00;53.70;;;;;;10639654;27;20099;-57
2021/12/20 16:14:13;;;;;;;9.80;5.60;;;19.00;53.80;;;;;;10607130;27;20043;-57
2021/12/20 16:19:19;;;;;;;11.38;5.85;;;19.00;53.70;;;;;;10626009;27;20197;-57
2021/12/20 16:24:24;;;;;;;11.20;6.28;;;19.00;53.70;;;;;;10624360;27;20047;-57
2021/12/20 16:29:29;;;;;;;11.35;5.95;;;19.10;53.50;;;;;;10624366;27;20046;-57
2021/12/20 16:34:34;;;;;;;11.32;6.35;;;19.10;53.70;;;;;;10606586;27;20051;-57
2021/12/20 16:39:39;;;;;;;11.38;6.55;;;19.20;53.60;;;;;;10624072;27;20047;-57
2021/12/20 16:44:48;;;;;;;12.10;6.28;;;19.20;53.50;;;;;;10624368;27;20072;-57
2021/12/20 16:49:55;;;;;;;9.18;6.03;;;19.20;53.50;;;;;;10623857;28;20047;-57
2021/12/20 16:55:01;;;;;;;29.97;12.03;;;19.30;53.50;;;;;;10605718;28;20051;-57
2021/12/20 17:00:10;;;;;;;32.15;13.45;;;19.30;53.40;;;;;;10624314;28;20035;-57
2021/12/20 17:05:23;;;;;;;29.67;12.82;;;19.20;53.40;;;;;;10623887;28;20422;-57
2021/12/20 17:10:28;;;;;;;31.83;13.90;;;19.10;53.70;;;;;;10623977;28;20413;-57
2021/12/20 17:15:34;;;;;;;34.75;12.82;;;19.00;54.00;;;;;;10622911;28;20051;-57
2021/12/20 17:20:41;;;;;;;25.10;11.93;;;18.90;54.10;;;;;;10623894;28;20042;-57
2021/12/20 17:25:48;;;;;;;27.88;11.95;;;18.80;54.20;;;;;;10605138;28;20047;-57
2021/12/20 17:30:54;;;;;;;22.25;9.30;;;18.80;54.30;;;;;;10623526;28;20368;-57
2021/12/20 17:35:59;;;;;;;17.50;8.35;;;18.70;54.30;;;;;;10606637;27;20480;-57
2021/12/20 17:41:05;;;;;;;14.27;6.45;;;18.70;54.30;;;;;;10631664;27;20120;-57
2021/12/20 17:46:11;;;;;;;10.18;5.10;;;18.70;54.30;;;;;;10612923;27;20092;-57
2021/12/20 17:51:16;;;;;;;11.50;5.93;;;18.60;54.20;;;;;;10612699;27;20407;-57
2021/12/20 17:56:22;;;;;;;12.90;6.38;;;18.70;54.20;;;;;;10631426;27;20047;-57
2021/12/20 18:01:27;;;;;;;14.27;7.20;;;18.60;53.90;;;;;;10630494;27;20051;-57
2021/12/20 18:06:31;;;;;;;15.45;7.97;;;18.60;53.90;;;;;;10623100;27;20039;-57
2021/12/20 18:11:37;;;;;;;14.75;8.70;;;18.60;53.90;;;;;;10624800;27;20046;-57
2021/12/20 18:16:42;;;;;;;16.15;8.90;;;18.50;53.90;;;;;;10628064;27;20055;-57
2021/12/20 18:21:51;;;;;;;24.85;8.15;;;18.50;53.90;;;;;;10604175;27;20039;-59
2021/12/20 18:27:02;;;;;;;11.07;6.15;;;18.50;54.60;;;;;;10612532;27;20536;-59
2021/12/20 18:32:18;;;;;;;11.65;5.90;;;18.50;55.10;;;;;;10594468;27;20073;-59
2021/12/20 18:37:28;;;;;;;12.95;6.45;;;18.50;55.30;;;;;;10578716;27;20441;-59
2021/12/20 18:42:38;;;;;;;16.10;6.22;;;18.60;55.50;;;;;;10583114;27;20036;-59
2021/12/20 18:47:48;;;;;;;13.45;6.32;;;18.60;55.70;;;;;;10487688;28;20101;-58
2021/12/20 18:53:01;;;;;;;13.10;6.32;;;18.60;56.10;;;;;;10504870;28;20048;-58
2021/12/20 18:58:08;;;;;;;12.95;6.30;;;18.70;56.40;;;;;;10499703;28;20048;-57
2021/12/20 19:03:19;;;;;;;12.02;6.18;;;18.70;57.30;;;;;;10521723;28;20447;-58
2021/12/20 19:08:50;;;;;;;17.70;6.05;;;18.70;56.80;;;;;;10522950;28;20051;-58
2021/12/20 19:14:05;;;;;;;13.43;5.88;;;18.70;57.00;;;;;;10522305;28;20082;-58
2021/12/20 19:19:19;;;;;;;15.10;6.05;;;18.70;57.30;;;;;;10538398;28;20094;-59
2021/12/20 19:24:31;;;;;;;18.42;6.55;;;18.70;57.60;;;;;;10505851;28;20044;-59
2021/12/20 19:29:48;;;;;;;12.27;5.47;;;18.80;58.20;;;;;;10506256;28;20109;-58
2021/12/20 19:35:03;;;;;;;10.18;5.07;;;18.90;57.80;;;;;;10524956;28;20036;-58
2021/12/20 19:40:12;;;;;;;9.10;4.82;;;19.10;57.80;;;;;;10564355;28;20032;-58
2021/12/20 19:45:31;;;;;;;9.38;4.80;;;19.20;58.00;;;;;;10530877;28;20066;-58
2021/12/20 19:50:43;;;;;;;8.10;4.53;;;19.30;57.90;;;;;;10541941;28;20070;-59
2021/12/20 19:55:58;;;;;;;7.07;4.03;;;19.50;58.00;;;;;;10563609;28;20039;-58
2021/12/20 20:01:24;;;;;;;7.53;3.80;;;19.50;58.00;;;;;;10579496;28;20036;-59
2021/12/20 20:06:35;;;;;;;8.68;4.35;;;19.60;58.10;;;;;;10560302;28;20046;-58
2021/12/20 20:11:40;;;;;;;8.70;3.70;;;19.70;58.00;;;;;;10574003;28;20109;-58
2021/12/20 20:16:46;;;;;;;9.50;3.95;;;19.80;58.20;;;;;;10582854;28;20124;-58
2021/12/20 20:21:52;;;;;;;13.10;6.30;;;19.80;58.20;;;;;;10581794;28;20052;-59
2021/12/20 20:26:56;;;;;;;11.25;5.85;;;19.90;58.40;;;;;;10547550;28;20036;-59
2021/12/20 20:32:03;;;;;;;13.95;5.72;;;20.00;58.30;;;;;;10577647;28;20051;-57
2021/12/20 20:37:10;;;;;;;13.13;5.00;;;20.00;58.80;;;;;;10580816;28;20101;-57
2021/12/20 20:42:14;;;;;;;15.30;4.93;;;20.10;58.80;;;;;;10580282;28;20040;-56
2021/12/20 20:47:20;;;;;;;13.65;5.45;;;20.10;58.80;;;;;;10581342;28;20058;-56
2021/12/20 20:52:25;;;;;;;9.35;5.13;;;20.20;59.20;;;;;;10574508;28;20062;-57
2021/12/20 20:57:32;;;;;;;12.88;5.78;;;20.30;59.70;;;;;;10581575;28;20093;-57
2021/12/20 21:02:36;;;;;;;10.73;4.50;;;20.30;60.00;;;;;;10563462;28;20051;-56
2021/12/20 21:07:41;;;;;;;12.80;5.47;;;20.40;60.10;;;;;;10560414;28;20044;-56
2021/12/20 21:12:46;;;;;;;22.40;4.75;;;20.40;60.90;;;;;;10561152;28;20439;-57
2021/12/20 21:17:55;;;;;;;22.48;3.85;;;20.20;61.40;;;;;;10566595;28;20048;-56
2021/12/20 21:23:00;;;;;;;19.98;3.65;;;20.10;62.00;;;;;;10566991;28;20047;-57
2021/12/20 21:28:05;;;;;;;13.60;2.90;;;20.00;62.30;;;;;;10568992;28;20451;-56
2021/12/20 21:33:10;;;;;;;8.15;3.00;;;20.00;62.50;;;;;;10586427;28;20040;-56
2021/12/20 21:38:17;;;;;;;5.57;2.53;;;20.00;62.50;;;;;;10588612;28;20047;-56
2021/12/20 21:43:23;;;;;;;6.82;2.17;;;19.90;62.50;;;;;;10587444;28;20048;-56
2021/12/20 21:48:30;;;;;;;9.50;2.50;;;19.90;62.70;;;;;;10590127;28;20047;-56
2021/12/20 21:53:35;;;;;;;4.75;2.15;;;19.90;62.70;;;;;;10588921;28;20446;-56
2021/12/20 21:58:41;;;;;;;6.68;2.10;;;19.90;62.60;;;;;;10590954;28;20062;-56
2021/12/20 22:03:48;;;;;;;7.40;2.95;;;19.90;62.60;;;;;;10588646;28;20044;-56
2021/12/20 22:08:54;;;;;;;3.87;1.77;;;19.80;62.60;;;;;;10589888;28;20086;-56
2021/12/20 22:14:16;;;;;;;4.68;2.28;;;19.80;62.70;;;;;;10573029;28;20503;-56
2021/12/20 22:19:23;;;;;;;6.05;2.30;;;19.80;63.30;;;;;;10629105;27;20054;-56
2021/12/20 22:24:29;;;;;;;7.03;2.73;;;19.80;62.80;;;;;;10630412;27;20047;-56
2021/12/20 22:29:35;;;;;;;8.25;2.95;;;19.70;62.60;;;;;;10630137;27;20380;-56
2021/12/20 22:34:40;;;;;;;6.07;2.90;;;19.70;62.80;;;;;;10630478;27;20043;-56
2021/12/20 22:39:46;;;;;;;6.30;2.53;;;19.70;62.70;;;;;;10630801;27;20058;-56
2021/12/20 22:44:52;;;;;;;11.02;2.85;;;19.60;62.70;;;;;;10613087;27;20084;-56
2021/12/20 22:50:02;;;;;;;3.47;2.20;;;19.60;62.80;;;;;;10630157;27;20460;-58
2021/12/20 22:55:08;;;;;;;5.85;2.75;;;19.60;62.90;;;;;;10629840;27;20043;-56
2021/12/20 23:00:37;;;;;;;6.40;2.63;;;19.60;62.90;;;;;;10628886;27;20055;-56
2021/12/20 23:05:42;;;;;;;7.05;2.53;;;19.50;62.90;;;;;;10596995;27;20065;-56
2021/12/20 23:10:49;;;;;;;4.95;2.25;;;19.50;62.80;;;;;;10595720;27;20089;-56
2021/12/20 23:15:56;;;;;;;3.67;2.20;;;19.40;62.90;;;;;;10586460;28;20048;-57
2021/12/20 23:21:03;;;;;;;4.47;2.10;;;19.40;62.80;;;;;;10586298;28;20040;-57
2021/12/20 23:26:09;;;;;;;4.88;2.67;;;19.40;63.50;;;;;;10586069;28;20047;-57
2021/12/20 23:31:15;;;;;;;10.43;2.42;;;19.40;62.90;;;;;;10585681;28;20040;-57
2021/12/20 23:36:21;;;;;;;4.88;2.47;;;19.40;63.00;;;;;;10566419;28;20044;-56
2021/12/20 23:41:32;;;;;;;8.27;7.25;;;19.40;63.00;;;;;;10584484;28;20052;-57
2021/12/20 23:46:38;;;;;;;7.53;2.25;;;19.30;63.00;;;;;;10585378;28;20040;-56
2021/12/20 23:51:44;;;;;;;3.85;2.15;;;19.30;63.00;;;;;;10585041;28;20047;-57
2021/12/20 23:56:49;;;;;;;3.92;1.92;;;19.30;63.00;;;;;;10566394;28;20445;-57
